Time;durP1;ratioP1;P1;durP2;ratioP2;P2;SDS_P1;SDS_P2;PMS_P1;PMS_P2;Temp;Humidity;BMP_temperature;BMP_pressure;BME280_temperature;BME280_humidity;BME280_pressure;Samples;Min_cycle;Max_cycle;Signal;HPM_P1;HPM_P2
2020/12/26 00:01:15;;;;;;;5.00;4.13;;;3.30;99.90;;;;;;5017479;28;20316;-78
2020/12/26 00:03:42;;;;;;;3.23;2.93;;;3.30;99.90;;;;;;5017321;28;20371;-78
2020/12/26 00:06:12;;;;;;;7.20;3.30;;;3.30;99.90;;;;;;5008764;28;20289;-78
2020/12/26 00:08:38;;;;;;;5.27;3.10;;;3.40;99.90;;;;;;5006956;28;20208;-77
2020/12/26 00:11:08;;;;;;;5.63;3.27;;;3.30;99.90;;;;;;5000622;28;21847;-76
2020/12/26 00:13:37;;;;;;;7.10;3.20;;;3.20;99.90;;;;;;5020511;28;20214;-78
2020/12/26 00:16:04;;;;;;;7.00;3.23;;;3.20;99.90;;;;;;5033060;28;20299;-77
2020/12/26 00:18:31;;;;;;;7.73;3.27;;;3.30;99.90;;;;;;5019860;28;20292;-77
2020/12/26 00:20:59;;;;;;;5.90;3.20;;;3.50;99.90;;;;;;5007532;28;20251;-77
2020/12/26 00:23:26;;;;;;;4.70;2.87;;;3.50;99.90;;;;;;5018843;28;20248;-77
2020/12/26 00:25:52;;;;;;;7.43;3.10;;;3.50;99.90;;;;;;5025285;28;20809;-77
2020/12/26 00:28:19;;;;;;;6.07;2.63;;;3.40;99.90;;;;;;5011953;28;20205;-78
2020/12/26 00:30:45;;;;;;;7.63;3.13;;;3.50;99.90;;;;;;5003437;28;20235;-78
2020/12/26 00:33:12;;;;;;;5.43;3.27;;;3.50;99.90;;;;;;5003312;28;20195;-77
2020/12/26 00:35:38;;;;;;;5.80;2.77;;;3.50;99.90;;;;;;5016308;28;20252;-77
2020/12/26 00:38:05;;;;;;;9.97;4.00;;;3.50;99.90;;;;;;5016621;28;20216;-78
2020/12/26 00:40:31;;;;;;;7.40;3.10;;;3.40;99.90;;;;;;5018094;28;20560;-78
2020/12/26 00:42:58;;;;;;;5.00;2.73;;;3.40;99.90;;;;;;5046629;28;20204;-76
2020/12/26 00:45:24;;;;;;;6.97;3.73;;;3.40;99.90;;;;;;5019043;28;20594;-78
2020/12/26 00:47:50;;;;;;;6.20;3.13;;;3.30;99.90;;;;;;5013874;28;21121;-76
2020/12/26 00:50:17;;;;;;;4.40;2.70;;;3.30;99.90;;;;;;5019325;28;20200;-76
2020/12/26 00:52:43;;;;;;;7.67;3.00;;;3.30;99.90;;;;;;5015866;28;20200;-76
2020/12/26 00:55:09;;;;;;;5.30;2.57;;;3.30;99.90;;;;;;5017746;28;20206;-75
2020/12/26 00:57:36;;;;;;;6.03;3.27;;;3.40;99.90;;;;;;5020677;28;20225;-76
2020/12/26 01:00:04;;;;;;;4.47;2.50;;;3.50;99.90;;;;;;5052075;28;20251;-76
2020/12/26 01:02:31;;;;;;;4.67;2.87;;;3.50;99.90;;;;;;5021016;28;20228;-76
2020/12/26 01:04:57;;;;;;;8.37;3.10;;;3.60;99.90;;;;;;5022397;28;20247;-76
2020/12/26 01:07:24;;;;;;;12.97;2.70;;;3.80;99.90;;;;;;5021365;28;21077;-76
2020/12/26 01:09:50;;;;;;;6.70;2.83;;;3.70;99.90;;;;;;5006925;28;20205;-76
2020/12/26 01:12:16;;;;;;;3.80;2.70;;;3.60;99.90;;;;;;5020409;28;20260;-75
2020/12/26 01:14:43;;;;;;;4.63;3.20;;;3.60;99.90;;;;;;5021911;28;20621;-76
2020/12/26 01:17:10;;;;;;;5.80;3.13;;;3.70;99.90;;;;;;5017688;28;20393;-79
2020/12/26 01:19:54;;;;;;;8.80;2.73;;;3.70;99.90;;;;;;5016167;28;20630;-75
2020/12/26 01:22:20;;;;;;;3.70;2.33;;;3.80;99.90;;;;;;5019869;28;20197;-75
2020/12/26 01:24:47;;;;;;;3.93;3.10;;;3.70;99.90;;;;;;5023352;28;20290;-76
2020/12/26 01:27:13;;;;;;;5.03;2.87;;;3.60;99.90;;;;;;5020988;28;20329;-75
2020/12/26 01:29:39;;;;;;;12.07;2.87;;;3.70;99.90;;;;;;5033778;28;20263;-76
2020/12/26 01:32:05;;;;;;;8.33;2.63;;;3.80;99.90;;;;;;5004951;28;20205;-77
2020/12/26 01:34:32;;;;;;;4.07;2.50;;;3.70;99.90;;;;;;5018100;28;20207;-75
2020/12/26 01:36:58;;;;;;;7.40;2.93;;;3.70;99.90;;;;;;5018078;28;20214;-76
2020/12/26 01:39:25;;;;;;;5.47;2.50;;;3.90;99.90;;;;;;5020131;28;20224;-77
2020/12/26 01:41:52;;;;;;;5.83;2.93;;;3.90;99.90;;;;;;5001383;28;20338;-77
2020/12/26 01:44:19;;;;;;;3.40;2.17;;;3.90;99.90;;;;;;5036581;28;20564;-76
2020/12/26 01:46:47;;;;;;;3.77;2.43;;;3.80;99.90;;;;;;5011588;28;20592;-77
2020/12/26 01:49:16;;;;;;;5.30;2.37;;;3.90;99.90;;;;;;5021636;28;20213;-78
2020/12/26 01:51:44;;;;;;;4.77;2.73;;;3.90;99.90;;;;;;5018426;28;20215;-77
2020/12/26 01:54:12;;;;;;;3.73;3.13;;;3.90;99.90;;;;;;5023379;28;20391;-76
2020/12/26 01:56:39;;;;;;;4.57;2.37;;;4.00;99.90;;;;;;5007781;28;20244;-76
2020/12/26 01:59:06;;;;;;;7.33;2.57;;;4.10;99.90;;;;;;5022730;28;20611;-76
2020/12/26 02:01:38;;;;;;;5.40;2.50;;;4.20;99.90;;;;;;5021615;28;20271;-76
2020/12/26 02:04:05;;;;;;;4.73;2.37;;;4.10;99.90;;;;;;5053216;28;20552;-77
2020/12/26 02:06:45;;;;;;;5.43;2.30;;;4.20;99.90;;;;;;5020885;28;21044;-78
2020/12/26 02:09:12;;;;;;;5.33;2.60;;;4.20;99.90;;;;;;5020343;28;20231;-76
2020/12/26 02:11:39;;;;;;;6.97;2.27;;;4.00;99.90;;;;;;5022774;28;20617;-75
2020/12/26 02:14:06;;;;;;;2.87;1.90;;;4.00;99.90;;;;;;5026276;28;20205;-77
2020/12/26 02:16:47;;;;;;;3.63;2.30;;;4.10;99.90;;;;;;5020651;28;20305;-76
2020/12/26 02:19:16;;;;;;;4.23;2.03;;;4.10;99.90;;;;;;5021356;28;20224;-77
2020/12/26 02:21:42;;;;;;;4.23;2.20;;;4.10;99.90;;;;;;5020905;28;20612;-77
2020/12/26 02:24:10;;;;;;;2.87;2.27;;;4.10;99.90;;;;;;5007944;28;20385;-76
2020/12/26 02:26:37;;;;;;;3.87;2.10;;;4.00;99.90;;;;;;5037180;28;20571;-76
2020/12/26 02:29:05;;;;;;;4.57;2.13;;;4.00;99.90;;;;;;5007320;28;20542;-77
2020/12/26 02:31:32;;;;;;;7.37;2.20;;;4.10;99.90;;;;;;5015551;28;20620;-76
2020/12/26 02:33:59;;;;;;;5.87;2.27;;;4.00;99.90;;;;;;5020131;28;20233;-76
2020/12/26 02:36:26;;;;;;;7.40;2.47;;;3.90;99.90;;;;;;5009932;28;20241;-77
2020/12/26 02:38:53;;;;;;;4.57;1.87;;;3.90;99.90;;;;;;5032425;28;20283;-76
2020/12/26 02:41:19;;;;;;;3.53;2.13;;;3.90;99.90;;;;;;5025889;28;20634;-76
2020/12/26 02:43:45;;;;;;;3.53;2.40;;;4.00;99.90;;;;;;5018030;28;20611;-76
2020/12/26 02:46:12;;;;;;;2.90;2.20;;;3.80;99.90;;;;;;5019262;28;20275;-76
2020/12/26 02:48:39;;;;;;;3.50;2.03;;;3.80;99.90;;;;;;5019833;28;20197;-76
2020/12/26 02:51:05;;;;;;;4.40;2.10;;;3.80;99.90;;;;;;5023530;28;20233;-76
2020/12/26 02:53:32;;;;;;;3.33;2.17;;;3.80;99.90;;;;;;5008614;28;20819;-76
2020/12/26 02:55:58;;;;;;;6.23;1.53;;;3.70;99.90;;;;;;5023700;28;20262;-76
2020/12/26 02:58:25;;;;;;;4.87;2.30;;;3.70;99.90;;;;;;5017639;28;20225;-76
2020/12/26 03:00:51;;;;;;;7.50;2.90;;;3.70;99.90;;;;;;5038433;28;20267;-76
2020/12/26 03:03:17;;;;;;;4.87;2.53;;;3.70;99.90;;;;;;5017617;28;20271;-75
2020/12/26 03:05:44;;;;;;;3.60;2.33;;;3.70;99.90;;;;;;5031684;28;20269;-75
2020/12/26 03:08:10;;;;;;;4.00;2.20;;;3.70;99.90;;;;;;5021669;28;21063;-75
2020/12/26 03:10:37;;;;;;;3.67;1.90;;;3.70;99.90;;;;;;5020383;28;20201;-76
2020/12/26 03:13:03;;;;;;;2.73;1.73;;;3.80;99.90;;;;;;5028814;28;20194;-75
2020/12/26 03:15:30;;;;;;;2.80;1.83;;;3.80;99.90;;;;;;5021039;28;20640;-76
2020/12/26 03:17:56;;;;;;;2.17;1.77;;;3.80;99.90;;;;;;5021405;28;20567;-76
2020/12/26 03:20:23;;;;;;;3.40;1.87;;;3.90;99.90;;;;;;5019547;28;20197;-76
2020/12/26 03:22:49;;;;;;;10.40;2.00;;;3.90;99.90;;;;;;5024301;28;20236;-76
2020/12/26 03:25:16;;;;;;;3.13;1.53;;;3.90;99.90;;;;;;5031143;28;20212;-76
2020/12/26 03:27:42;;;;;;;3.27;1.80;;;3.80;99.90;;;;;;5022467;28;20966;-76
2020/12/26 03:30:09;;;;;;;4.93;2.07;;;3.80;99.90;;;;;;5033016;28;20197;-76
2020/12/26 03:32:37;;;;;;;4.77;1.57;;;3.80;99.90;;;;;;5005418;28;20288;-76
2020/12/26 03:35:04;;;;;;;2.20;1.47;;;3.70;99.90;;;;;;5035254;28;20229;-75
2020/12/26 03:37:33;;;;;;;3.13;1.67;;;3.80;99.90;;;;;;5029248;28;20263;-75
2020/12/26 03:39:59;;;;;;;6.13;1.97;;;3.80;99.90;;;;;;5021751;28;20565;-75
2020/12/26 03:42:25;;;;;;;1.87;1.67;;;3.80;99.90;;;;;;5021007;28;20283;-75
2020/12/26 03:44:52;;;;;;;3.03;1.50;;;3.70;99.90;;;;;;5006468;28;20234;-75
2020/12/26 03:47:18;;;;;;;4.53;1.80;;;3.70;99.90;;;;;;5017620;28;20658;-76
2020/12/26 03:49:45;;;;;;;5.50;1.80;;;3.60;99.90;;;;;;5018975;28;20216;-74
2020/12/26 03:52:13;;;;;;;6.50;1.67;;;3.60;99.90;;;;;;5016849;28;20645;-75
2020/12/26 03:54:39;;;;;;;3.73;1.67;;;3.70;99.90;;;;;;5018445;28;20197;-76
2020/12/26 03:57:06;;;;;;;1.57;1.23;;;3.60;99.90;;;;;;5020003;28;20224;-75
2020/12/26 03:59:32;;;;;;;4.47;1.50;;;3.70;99.90;;;;;;5015895;28;20224;-76
2020/12/26 04:01:59;;;;;;;1.27;1.17;;;3.60;99.90;;;;;;5015399;28;20201;-75
2020/12/26 04:04:25;;;;;;;8.43;2.07;;;3.50;99.90;;;;;;5008766;28;20231;-76
2020/12/26 04:06:54;;;;;;;2.70;1.20;;;3.50;99.90;;;;;;5005737;28;20276;-75
2020/12/26 04:09:20;;;;;;;5.77;1.70;;;3.60;99.90;;;;;;5019867;28;20606;-76
2020/12/26 04:11:47;;;;;;;1.27;1.07;;;3.60;99.90;;;;;;5012398;28;20279;-76
2020/12/26 04:14:13;;;;;;;3.07;2.00;;;3.40;99.90;;;;;;4998508;28;20246;-75
2020/12/26 04:16:40;;;;;;;1.97;1.60;;;3.40;99.90;;;;;;5014613;28;20291;-76
2020/12/26 04:19:06;;;;;;;2.60;1.70;;;3.40;99.90;;;;;;5034858;28;20208;-77
2020/12/26 04:21:51;;;;;;;2.07;1.47;;;3.40;99.90;;;;;;5045729;28;20276;-76
2020/12/26 04:24:17;;;;;;;2.70;1.87;;;3.30;99.90;;;;;;5024774;28;20232;-76
2020/12/26 04:26:44;;;;;;;4.37;2.30;;;3.50;99.90;;;;;;5016635;28;20252;-76
2020/12/26 04:29:11;;;;;;;5.57;2.50;;;3.40;99.90;;;;;;5020805;28;20201;-76
2020/12/26 04:31:37;;;;;;;4.40;2.50;;;3.30;99.90;;;;;;5024901;28;20722;-78
2020/12/26 04:34:03;;;;;;;3.93;2.40;;;3.30;99.90;;;;;;5033063;28;20209;-76
2020/12/26 04:36:30;;;;;;;4.37;2.80;;;3.30;99.90;;;;;;5000449;28;20611;-76
2020/12/26 04:38:57;;;;;;;6.80;3.00;;;3.30;99.90;;;;;;5002937;28;20209;-77
2020/12/26 04:41:24;;;;;;;3.70;2.83;;;3.30;99.90;;;;;;5017761;28;20245;-77
2020/12/26 04:43:54;;;;;;;3.47;2.90;;;3.30;99.90;;;;;;5020533;28;20319;-78
2020/12/26 04:46:25;;;;;;;4.97;2.57;;;3.30;99.90;;;;;;5020363;28;20294;-75
2020/12/26 04:49:21;;;;;;;4.17;3.10;;;3.30;99.90;;;;;;5014085;28;20634;-77
2020/12/26 04:51:50;;;;;;;4.63;2.80;;;3.30;99.90;;;;;;5016877;28;20291;-76
2020/12/26 04:54:24;;;;;;;4.20;3.10;;;3.30;99.90;;;;;;5019641;28;20997;-76
2020/12/26 04:56:53;;;;;;;5.73;3.43;;;3.30;99.90;;;;;;5034305;28;20259;-76
2020/12/26 04:59:20;;;;;;;4.83;3.40;;;3.30;99.90;;;;;;5031278;28;20618;-76
2020/12/26 05:01:48;;;;;;;6.73;3.20;;;3.20;99.90;;;;;;5022754;28;20193;-77
2020/12/26 05:04:15;;;;;;;7.77;3.90;;;3.20;99.90;;;;;;5015534;28;20253;-77
2020/12/26 05:06:52;;;;;;;5.83;3.87;;;3.10;99.90;;;;;;5018446;28;20240;-75
2020/12/26 05:09:21;;;;;;;6.07;4.37;;;3.20;99.90;;;;;;5029003;28;20273;-76
2020/12/26 05:11:56;;;;;;;5.37;4.07;;;3.20;99.90;;;;;;5021822;28;20200;-76
2020/12/26 05:14:24;;;;;;;6.37;3.97;;;3.10;99.90;;;;;;5022447;28;20231;-76
2020/12/26 05:16:51;;;;;;;6.00;4.10;;;3.10;99.90;;;;;;5006205;28;20282;-76
2020/12/26 05:19:18;;;;;;;7.70;4.03;;;3.10;99.90;;;;;;5020914;28;20228;-76
2020/12/26 05:21:54;;;;;;;5.47;4.23;;;3.20;99.90;;;;;;5019559;28;20208;-75
2020/12/26 05:24:21;;;;;;;3.93;3.57;;;3.10;99.90;;;;;;5012598;28;20232;-75
2020/12/26 05:26:52;;;;;;;9.47;4.27;;;3.10;99.90;;;;;;5022828;28;20216;-75
2020/12/26 05:29:20;;;;;;;7.87;4.73;;;3.10;99.90;;;;;;5003695;28;20219;-75
2020/12/26 05:31:58;;;;;;;6.37;4.40;;;3.20;99.90;;;;;;5028935;28;20579;-76
2020/12/26 05:34:42;;;;;;;8.47;4.60;;;3.10;99.90;;;;;;5020656;28;20228;-76
2020/12/26 05:37:08;;;;;;;7.07;5.03;;;3.00;99.90;;;;;;5018824;28;20267;-75
2020/12/26 05:39:38;;;;;;;5.33;4.27;;;2.90;99.90;;;;;;5012865;28;20189;-75
2020/12/26 05:42:06;;;;;;;8.60;4.53;;;3.00;99.90;;;;;;5016099;28;20212;-76
2020/12/26 05:44:37;;;;;;;8.13;5.87;;;3.10;99.90;;;;;;4994720;28;20538;-76
2020/12/26 05:47:06;;;;;;;7.77;5.47;;;3.00;99.90;;;;;;5017064;28;20271;-76
2020/12/26 05:49:39;;;;;;;6.23;4.47;;;3.00;99.90;;;;;;5018811;28;20220;-75
2020/12/26 05:52:08;;;;;;;5.70;4.63;;;2.90;99.90;;;;;;5016880;28;21935;-76
2020/12/26 05:54:35;;;;;;;6.93;5.37;;;2.80;99.90;;;;;;5027948;28;20286;-76
2020/12/26 05:57:12;;;;;;;6.83;4.93;;;2.80;99.90;;;;;;5015437;28;20218;-76
2020/12/26 05:59:40;;;;;;;8.57;5.00;;;2.80;99.90;;;;;;5020808;28;20216;-74
2020/12/26 06:02:16;;;;;;;8.30;5.50;;;2.80;99.90;;;;;;5015586;28;20378;-76
2020/12/26 06:05:00;;;;;;;8.37;5.40;;;2.70;99.90;;;;;;5035239;28;20200;-75
2020/12/26 06:07:32;;;;;;;7.07;5.00;;;2.70;99.90;;;;;;5017920;28;20205;-75
2020/12/26 06:10:05;;;;;;;6.03;4.90;;;2.70;99.90;;;;;;5016847;28;20217;-75
2020/12/26 06:12:32;;;;;;;5.83;4.20;;;2.70;99.90;;;;;;5016492;28;20776;-74
2020/12/26 06:14:59;;;;;;;6.80;4.90;;;2.70;99.90;;;;;;5047892;28;20360;-74
2020/12/26 06:17:28;;;;;;;7.30;5.03;;;2.70;99.90;;;;;;5019948;28;20244;-75
2020/12/26 06:19:58;;;;;;;6.30;4.87;;;2.60;99.90;;;;;;5014577;28;20307;-76
2020/12/26 06:22:25;;;;;;;8.53;4.90;;;2.60;99.90;;;;;;5019782;28;20258;-76
2020/12/26 06:24:52;;;;;;;7.13;5.23;;;2.70;99.90;;;;;;5015190;28;20632;-76
2020/12/26 06:27:23;;;;;;;8.03;4.63;;;2.70;99.90;;;;;;5028814;28;20278;-76
2020/12/26 06:29:50;;;;;;;7.87;4.03;;;2.70;99.90;;;;;;5015725;28;20209;-76
2020/12/26 06:32:18;;;;;;;6.90;4.77;;;2.70;99.90;;;;;;5014740;28;20217;-76
2020/12/26 06:34:44;;;;;;;12.50;5.40;;;2.60;99.90;;;;;;5017136;28;20213;-75
2020/12/26 06:37:11;;;;;;;6.43;4.80;;;2.60;99.90;;;;;;5022074;28;20660;-76
2020/12/26 06:39:38;;;;;;;9.73;5.17;;;2.50;99.90;;;;;;5019405;28;20224;-77
2020/12/26 06:42:11;;;;;;;10.93;5.67;;;2.60;99.90;;;;;;5016815;28;20292;-76
2020/12/26 06:44:38;;;;;;;8.80;5.03;;;2.60;99.90;;;;;;5032480;28;20201;-75
2020/12/26 06:47:05;;;;;;;7.70;5.13;;;2.60;99.90;;;;;;5013578;28;20244;-75
2020/12/26 06:49:31;;;;;;;6.50;4.30;;;2.60;99.90;;;;;;5016301;28;20547;-76
2020/12/26 06:51:58;;;;;;;7.63;4.37;;;2.60;99.90;;;;;;5017212;28;20204;-76
2020/12/26 06:54:41;;;;;;;7.33;5.20;;;2.50;99.90;;;;;;5015213;28;20243;-75
2020/12/26 06:57:08;;;;;;;12.63;4.60;;;2.60;99.90;;;;;;5021267;28;20239;-76
2020/12/26 06:59:36;;;;;;;5.33;4.10;;;2.70;99.90;;;;;;5015862;28;20237;-76
2020/12/26 07:02:07;;;;;;;6.30;4.37;;;2.70;99.90;;;;;;5017494;28;20239;-75
2020/12/26 07:04:41;;;;;;;7.80;5.03;;;2.70;99.90;;;;;;5021065;28;20634;-75
2020/12/26 07:07:11;;;;;;;6.70;3.73;;;2.70;99.90;;;;;;5035095;28;20236;-75
2020/12/26 07:09:37;;;;;;;6.73;4.00;;;2.70;99.90;;;;;;5018498;28;20215;-76
2020/12/26 07:12:05;;;;;;;5.83;3.63;;;2.70;99.90;;;;;;5025176;28;20649;-77
2020/12/26 07:14:40;;;;;;;4.53;3.63;;;2.80;99.90;;;;;;5021297;28;20211;-77
2020/12/26 07:17:27;;;;;;;5.13;3.73;;;2.80;99.90;;;;;;5021054;28;20255;-76
2020/12/26 07:19:58;;;;;;;4.90;3.83;;;2.80;99.90;;;;;;5019615;28;20664;-77
2020/12/26 07:22:33;;;;;;;5.00;3.40;;;2.90;99.90;;;;;;5016687;28;20201;-76
2020/12/26 07:25:03;;;;;;;6.67;4.50;;;2.90;99.90;;;;;;5020546;28;20259;-77
2020/12/26 07:27:31;;;;;;;6.03;3.90;;;2.90;99.90;;;;;;5020659;28;21915;-77
2020/12/26 07:30:14;;;;;;;5.33;3.60;;;3.00;99.90;;;;;;5018190;28;20204;-76
2020/12/26 07:32:43;;;;;;;6.23;4.03;;;2.90;99.90;;;;;;5018081;28;20216;-76
2020/12/26 07:35:12;;;;;;;5.70;3.60;;;2.90;99.90;;;;;;5021139;28;20236;-76
2020/12/26 07:37:54;;;;;;;5.70;3.77;;;2.90;99.90;;;;;;5010579;28;20271;-77
2020/12/26 07:40:24;;;;;;;9.23;4.33;;;3.00;99.90;;;;;;5011661;28;20279;-76
2020/12/26 07:42:51;;;;;;;8.17;3.43;;;2.90;99.90;;;;;;5017108;28;20239;-75
2020/12/26 07:45:19;;;;;;;5.27;3.77;;;2.90;99.90;;;;;;5022958;28;20963;-75
2020/12/26 07:47:48;;;;;;;6.57;3.20;;;3.00;99.90;;;;;;5018341;28;20335;-75
2020/12/26 07:50:16;;;;;;;4.63;3.20;;;3.00;99.90;;;;;;5021818;28;20268;-75
2020/12/26 07:52:46;;;;;;;9.13;4.60;;;3.00;99.90;;;;;;5019268;28;20204;-76
2020/12/26 07:55:13;;;;;;;5.93;4.07;;;3.00;99.90;;;;;;5016430;28;20618;-75
2020/12/26 07:57:39;;;;;;;5.60;3.87;;;3.00;99.90;;;;;;5023073;28;20673;-75
2020/12/26 08:00:06;;;;;;;5.87;3.33;;;3.00;99.90;;;;;;5019724;28;20793;-76
2020/12/26 08:02:32;;;;;;;7.33;3.63;;;3.00;99.90;;;;;;5017121;28;20233;-75
2020/12/26 08:04:59;;;;;;;3.97;2.87;;;3.00;99.90;;;;;;5016747;28;20641;-76
2020/12/26 08:07:32;;;;;;;3.30;2.97;;;3.10;99.90;;;;;;5020225;28;20288;-75
2020/12/26 08:09:59;;;;;;;7.57;3.80;;;3.00;99.90;;;;;;5021405;28;20228;-77
2020/12/26 08:12:25;;;;;;;7.60;3.77;;;3.10;99.90;;;;;;5021416;28;20220;-75
2020/12/26 08:14:58;;;;;;;5.27;3.07;;;3.10;99.90;;;;;;5030431;28;20307;-76
2020/12/26 08:17:27;;;;;;;4.47;2.87;;;3.10;99.90;;;;;;5012358;28;20228;-75
2020/12/26 08:20:00;;;;;;;7.53;3.43;;;3.10;99.90;;;;;;5013219;28;20260;-76
2020/12/26 08:22:28;;;;;;;4.93;3.00;;;3.10;99.90;;;;;;5034108;28;20242;-76
2020/12/26 08:25:05;;;;;;;7.37;2.70;;;3.10;99.90;;;;;;4998395;28;20717;-75
2020/12/26 08:27:37;;;;;;;5.17;3.30;;;3.10;99.90;;;;;;5020600;28;20209;-77
2020/12/26 08:30:18;;;;;;;13.70;4.07;;;3.20;99.90;;;;;;5007393;28;20955;-76
2020/12/26 08:33:03;;;;;;;4.73;2.77;;;3.20;99.90;;;;;;5049521;28;20290;-76
2020/12/26 08:35:30;;;;;;;4.63;2.93;;;3.20;99.90;;;;;;5015691;28;20247;-75
2020/12/26 08:38:22;;;;;;;4.87;2.83;;;3.20;99.90;;;;;;5017206;28;20643;-76
2020/12/26 08:40:57;;;;;;;5.53;3.60;;;3.30;99.90;;;;;;5018277;28;20228;-75
2020/12/26 08:43:24;;;;;;;8.13;2.90;;;3.30;99.90;;;;;;5022257;28;20228;-76
2020/12/26 08:45:51;;;;;;;4.47;2.60;;;3.30;99.90;;;;;;5017307;28;20217;-76
2020/12/26 08:48:19;;;;;;;5.03;2.37;;;3.30;99.90;;;;;;5019815;28;20205;-76
2020/12/26 08:50:59;;;;;;;3.17;2.80;;;3.40;99.90;;;;;;5052242;28;20261;-78
2020/12/26 08:53:33;;;;;;;6.77;3.00;;;3.40;99.90;;;;;;5030029;28;20632;-75
2020/12/26 08:56:00;;;;;;;4.30;2.60;;;3.50;99.90;;;;;;5023821;28;20197;-79
2020/12/26 08:58:32;;;;;;;3.40;2.33;;;3.50;99.90;;;;;;5028039;28;20331;-75
2020/12/26 09:01:05;;;;;;;3.43;2.57;;;3.50;99.90;;;;;;5029532;28;20201;-75
2020/12/26 09:03:35;;;;;;;4.23;2.83;;;3.60;99.90;;;;;;5016985;28;20266;-75
2020/12/26 09:06:03;;;;;;;5.37;2.50;;;3.60;99.90;;;;;;5016611;28;20272;-70
2020/12/26 09:08:34;;;;;;;9.03;2.97;;;3.60;99.90;;;;;;5018071;28;20336;-71
2020/12/26 09:11:07;;;;;;;3.83;2.63;;;3.60;99.90;;;;;;5018105;28;20296;-71
2020/12/26 09:13:38;;;;;;;5.80;2.27;;;3.60;99.90;;;;;;5013765;28;20331;-72
2020/12/26 09:16:10;;;;;;;4.53;2.17;;;3.60;99.90;;;;;;5029436;28;20239;-72
2020/12/26 09:18:48;;;;;;;5.53;2.40;;;3.60;99.90;;;;;;5023200;28;20294;-72
2020/12/26 09:21:28;;;;;;;2.30;1.67;;;3.70;99.90;;;;;;5033951;28;20617;-71
2020/12/26 09:23:57;;;;;;;2.47;1.80;;;3.80;99.90;;;;;;5015768;28;20675;-72
2020/12/26 09:26:25;;;;;;;4.80;2.20;;;3.80;99.90;;;;;;5016341;28;20236;-71
2020/12/26 09:29:03;;;;;;;2.07;1.80;;;3.80;99.90;;;;;;5029643;28;20269;-71
2020/12/26 09:31:30;;;;;;;2.50;1.80;;;3.80;99.90;;;;;;5016107;28;20204;-71
2020/12/26 09:33:58;;;;;;;2.33;1.60;;;3.80;99.90;;;;;;5028524;28;20231;-71
2020/12/26 09:36:26;;;;;;;2.43;1.70;;;3.80;99.90;;;;;;5018771;28;20624;-71
2020/12/26 09:38:54;;;;;;;3.70;2.00;;;3.80;99.90;;;;;;5014895;28;20261;-71
2020/12/26 09:41:20;;;;;;;2.40;1.90;;;3.80;99.90;;;;;;5017711;28;20232;-71
2020/12/26 09:43:48;;;;;;;4.73;1.63;;;3.80;99.90;;;;;;5018816;28;20256;-71
2020/12/26 09:46:15;;;;;;;11.47;2.13;;;3.80;99.90;;;;;;5007050;28;20285;-71
2020/12/26 09:48:43;;;;;;;4.70;1.70;;;3.90;99.90;;;;;;5018383;28;20583;-71
2020/12/26 09:51:15;;;;;;;3.57;1.63;;;3.90;99.90;;;;;;5018920;28;20308;-72
2020/12/26 09:53:42;;;;;;;1.70;1.43;;;3.90;99.90;;;;;;5048104;28;20235;-71
2020/12/26 09:56:09;;;;;;;3.70;2.13;;;3.80;99.90;;;;;;5001659;28;20202;-72
2020/12/26 09:58:40;;;;;;;6.43;2.00;;;3.90;99.90;;;;;;5018833;28;20224;-72
2020/12/26 10:01:07;;;;;;;3.50;1.73;;;3.90;99.90;;;;;;5027175;28;20343;-71
2020/12/26 10:03:34;;;;;;;3.60;1.70;;;3.90;99.90;;;;;;5017964;28;20296;-71
2020/12/26 10:06:01;;;;;;;4.17;1.73;;;3.90;99.90;;;;;;5012908;28;20626;-72
2020/12/26 10:08:29;;;;;;;3.87;1.77;;;3.90;99.90;;;;;;5005172;28;20205;-72
2020/12/26 10:10:57;;;;;;;4.17;1.80;;;3.90;99.90;;;;;;5015576;28;20234;-72
2020/12/26 10:13:23;;;;;;;4.37;2.00;;;4.00;99.90;;;;;;5017671;28;20296;-71
2020/12/26 10:15:50;;;;;;;7.20;2.23;;;3.90;99.90;;;;;;5048088;28;20228;-71
2020/12/26 10:18:16;;;;;;;2.70;1.60;;;4.00;99.90;;;;;;5019925;28;20303;-71
2020/12/26 10:20:42;;;;;;;2.33;1.60;;;4.00;99.90;;;;;;5014815;28;20597;-74
2020/12/26 10:23:09;;;;;;;5.67;2.10;;;4.00;99.90;;;;;;5024034;28;20245;-71
2020/12/26 10:25:48;;;;;;;2.27;1.67;;;4.00;99.90;;;;;;5016290;28;20197;-71
2020/12/26 10:28:16;;;;;;;2.73;1.60;;;4.00;99.90;;;;;;5019308;28;20196;-72
2020/12/26 10:30:42;;;;;;;3.50;2.07;;;4.00;99.90;;;;;;5019384;28;20286;-72
2020/12/26 10:33:08;;;;;;;2.07;1.87;;;4.00;99.90;;;;;;5023123;28;20217;-70
2020/12/26 10:35:35;;;;;;;4.03;1.70;;;4.10;99.90;;;;;;5027875;28;20269;-70
2020/12/26 10:38:01;;;;;;;4.37;1.90;;;4.10;99.90;;;;;;5020876;28;20256;-70
2020/12/26 10:40:27;;;;;;;3.90;1.40;;;4.10;99.90;;;;;;5014519;28;20261;-70
2020/12/26 10:42:53;;;;;;;2.33;1.23;;;4.10;99.90;;;;;;5012704;28;20289;-70
2020/12/26 10:45:20;;;;;;;2.40;1.50;;;4.20;99.90;;;;;;5019039;28;20239;-70
2020/12/26 10:47:46;;;;;;;3.70;1.60;;;4.20;99.90;;;;;;5032893;28;20199;-70
2020/12/26 10:50:12;;;;;;;3.93;1.53;;;4.30;99.90;;;;;;5008200;28;20233;-72
2020/12/26 10:52:39;;;;;;;6.47;1.67;;;4.30;99.90;;;;;;5019105;28;20715;-71
2020/12/26 10:55:05;;;;;;;4.30;2.03;;;4.30;99.90;;;;;;5021859;28;20308;-71
2020/12/26 10:57:31;;;;;;;3.07;1.30;;;4.30;99.90;;;;;;5049580;28;20660;-71
2020/12/26 10:59:58;;;;;;;4.07;1.50;;;4.30;99.90;;;;;;5019514;28;20200;-71
2020/12/26 11:02:24;;;;;;;4.23;1.40;;;4.30;99.90;;;;;;5015159;28;20251;-71
2020/12/26 11:04:50;;;;;;;2.90;1.10;;;4.40;99.90;;;;;;4997570;28;20244;-71
2020/12/26 11:07:16;;;;;;;2.47;1.40;;;4.30;99.90;;;;;;5030270;28;20227;-71
2020/12/26 11:09:43;;;;;;;2.73;1.67;;;4.40;99.90;;;;;;5019329;28;20303;-71
2020/12/26 11:12:09;;;;;;;6.10;2.00;;;4.40;99.90;;;;;;5014805;28;20310;-71
2020/12/26 11:14:36;;;;;;;2.83;1.67;;;4.40;99.90;;;;;;4998975;28;20213;-71
2020/12/26 11:17:03;;;;;;;3.53;1.97;;;4.50;99.90;;;;;;5019271;28;20232;-71
2020/12/26 11:19:29;;;;;;;3.07;1.90;;;4.50;99.90;;;;;;5014138;28;20657;-71
2020/12/26 11:21:55;;;;;;;3.57;1.53;;;4.50;99.90;;;;;;5017316;28;20350;-72
2020/12/26 11:24:22;;;;;;;1.30;1.10;;;4.60;99.90;;;;;;4997476;28;20294;-72
2020/12/26 11:26:50;;;;;;;1.60;1.50;;;4.60;99.90;;;;;;5016798;28;20319;-72
2020/12/26 11:29:16;;;;;;;4.47;1.50;;;4.60;99.90;;;;;;5018155;28;20233;-73
2020/12/26 11:31:42;;;;;;;3.00;1.53;;;4.60;99.90;;;;;;5050822;28;20209;-72
2020/12/26 11:34:11;;;;;;;3.93;1.60;;;4.60;99.90;;;;;;5047632;28;20255;-71
2020/12/26 11:36:39;;;;;;;4.27;1.70;;;4.60;99.90;;;;;;5014805;28;20264;-72
2020/12/26 11:39:06;;;;;;;1.80;1.60;;;4.70;99.90;;;;;;5011366;28;20275;-72
2020/12/26 11:41:32;;;;;;;4.30;1.90;;;4.60;99.90;;;;;;5013276;28;20200;-72
2020/12/26 11:43:59;;;;;;;3.50;1.47;;;4.70;99.90;;;;;;5011003;28;20343;-71
2020/12/26 11:46:26;;;;;;;3.33;1.60;;;4.60;99.90;;;;;;5017271;28;20202;-72
2020/12/26 11:48:52;;;;;;;2.07;1.60;;;4.70;99.90;;;;;;5013809;28;20315;-72
2020/12/26 11:51:18;;;;;;;4.60;1.50;;;4.60;99.90;;;;;;5017686;28;20242;-71
2020/12/26 11:53:45;;;;;;;5.10;1.60;;;4.60;99.90;;;;;;5012150;28;20228;-72
2020/12/26 11:56:16;;;;;;;2.20;1.80;;;4.60;99.90;;;;;;5018970;28;20284;-72
2020/12/26 11:58:43;;;;;;;4.43;1.70;;;4.80;99.90;;;;;;5020849;28;20225;-72
2020/12/26 12:01:10;;;;;;;2.60;1.73;;;4.80;99.90;;;;;;5007420;28;20247;-72
2020/12/26 12:03:37;;;;;;;1.93;1.23;;;4.80;99.90;;;;;;5017029;28;22596;-72
2020/12/26 12:06:04;;;;;;;6.57;1.90;;;4.80;99.90;;;;;;5014204;28;20805;-72
2020/12/26 12:08:31;;;;;;;2.90;1.50;;;4.90;99.90;;;;;;5014162;28;20202;-72
2020/12/26 12:10:57;;;;;;;3.23;1.80;;;4.80;99.90;;;;;;5026514;28;20193;-72
2020/12/26 12:13:24;;;;;;;7.10;2.00;;;4.90;99.90;;;;;;5016231;28;20204;-72
2020/12/26 12:15:50;;;;;;;4.50;1.90;;;4.90;99.90;;;;;;5016683;28;20303;-72
2020/12/26 12:18:17;;;;;;;3.87;1.90;;;5.00;99.90;;;;;;5016382;28;20263;-72
2020/12/26 12:20:43;;;;;;;4.80;1.70;;;5.00;99.90;;;;;;5004899;28;20562;-72
2020/12/26 12:23:09;;;;;;;3.27;2.60;;;5.00;99.90;;;;;;5016603;28;20268;-73
2020/12/26 12:25:35;;;;;;;2.20;1.73;;;5.00;99.90;;;;;;5011923;28;20229;-72
2020/12/26 12:28:02;;;;;;;2.60;1.80;;;5.00;99.90;;;;;;5029053;28;20284;-72
2020/12/26 12:30:28;;;;;;;4.77;1.83;;;5.00;99.90;;;;;;5020450;28;20671;-72
2020/12/26 12:32:54;;;;;;;1.77;1.47;;;5.00;99.90;;;;;;5012022;28;20304;-73
2020/12/26 12:35:21;;;;;;;3.10;2.33;;;5.00;99.90;;;;;;5017390;28;20256;-72
2020/12/26 12:37:48;;;;;;;4.23;1.90;;;5.10;99.90;;;;;;5016503;28;20307;-73
2020/12/26 12:40:16;;;;;;;2.37;2.00;;;5.10;99.90;;;;;;4998238;28;20221;-72
2020/12/26 12:42:42;;;;;;;3.83;1.60;;;5.10;99.90;;;;;;5019249;28;20310;-73
2020/12/26 12:45:09;;;;;;;2.20;1.53;;;5.10;99.90;;;;;;5029644;28;20711;-72
2020/12/26 12:47:36;;;;;;;4.93;1.53;;;5.10;99.90;;;;;;5015881;28;20263;-72
2020/12/26 12:50:05;;;;;;;2.53;2.10;;;5.20;99.90;;;;;;5000204;28;20232;-72
2020/12/26 12:52:32;;;;;;;8.93;2.20;;;5.20;99.90;;;;;;5019107;28;20207;-73
2020/12/26 12:54:58;;;;;;;4.97;2.17;;;5.20;99.90;;;;;;5016698;28;20819;-72
2020/12/26 12:57:26;;;;;;;3.03;2.10;;;5.30;99.90;;;;;;5010865;28;20323;-72
2020/12/26 12:59:52;;;;;;;10.30;3.00;;;5.20;99.90;;;;;;5013924;28;20276;-73
2020/12/26 13:02:19;;;;;;;1.70;1.33;;;5.30;99.90;;;;;;5001766;28;20193;-72
2020/12/26 13:04:45;;;;;;;2.37;1.67;;;5.30;99.90;;;;;;4999345;28;20241;-72